sensor_id;sensor_type;location;lat;lon;timestamp;temperature;humidity
31687;DHT22;18285;51.330;4.946;2023-04-06T00:18:01;22.50;26.30
31687;DHT22;18285;51.330;4.946;2023-04-06T00:42:13;22.40;26.20
31687;DHT22;18285;51.330;4.946;2023-04-06T01:06:24;22.50;26.20
31687;DHT22;18285;51.330;4.946;2023-04-06T01:30:35;22.50;26.10
31687;DHT22;18285;51.330;4.946;2023-04-06T01:54:45;22.50;26.10
31687;DHT22;18285;51.330;4.946;2023-04-06T02:18:56;22.50;26.10
31687;DHT22;18285;51.330;4.946;2023-04-06T02:43:07;22.50;26.10
31687;DHT22;18285;51.330;4.946;2023-04-06T03:07:17;22.50;26.20
31687;DHT22;18285;51.330;4.946;2023-04-06T03:31:28;22.50;26.20
31687;DHT22;18285;51.330;4.946;2023-04-06T03:55:39;22.50;26.30
31687;DHT22;18285;51.330;4.946;2023-04-06T04:19:50;22.50;26.20
31687;DHT22;18285;51.330;4.946;2023-04-06T04:44:00;22.60;26.30
31687;DHT22;18285;51.330;4.946;2023-04-06T05:08:11;22.60;26.40
31687;DHT22;18285;51.330;4.946;2023-04-06T05:32:23;22.60;26.60
31687;DHT22;18285;51.330;4.946;2023-04-06T05:56:35;22.40;26.60
31687;DHT22;18285;51.330;4.946;2023-04-06T06:20:45;22.50;26.50
31687;DHT22;18285;51.330;4.946;2023-04-06T06:44:56;22.50;26.50
31687;DHT22;18285;51.330;4.946;2023-04-06T07:09:07;22.60;26.60
31687;DHT22;18285;51.330;4.946;2023-04-06T07:33:17;22.60;26.70
31687;DHT22;18285;51.330;4.946;2023-04-06T07:57:28;22.60;27.00
31687;DHT22;18285;51.330;4.946;2023-04-06T08:21:39;22.70;27.20
31687;DHT22;18285;51.330;4.946;2023-04-06T08:45:50;22.70;27.50
31687;DHT22;18285;51.330;4.946;2023-04-06T09:10:01;22.70;28.50
31687;DHT22;18285;51.330;4.946;2023-04-06T09:34:21;22.70;30.00
31687;DHT22;18285;51.330;4.946;2023-04-06T09:58:34;22.80;30.30
31687;DHT22;18285;51.330;4.946;2023-04-06T10:22:56;22.70;30.80
31687;DHT22;18285;51.330;4.946;2023-04-06T10:47:16;22.80;31.30
31687;DHT22;18285;51.330;4.946;2023-04-06T11:11:30;22.80;31.70
31687;DHT22;18285;51.330;4.946;2023-04-06T11:35:41;22.80;32.30
31687;DHT22;18285;51.330;4.946;2023-04-06T11:59:52;22.80;32.60
31687;DHT22;18285;51.330;4.946;2023-04-06T12:24:03;22.90;33.10
31687;DHT22;18285;51.330;4.946;2023-04-06T12:48:14;22.90;33.30
31687;DHT22;18285;51.330;4.946;2023-04-06T13:12:25;22.90;33.30
31687;DHT22;18285;51.330;4.946;2023-04-06T13:36:36;23.00;34.00
31687;DHT22;18285;51.330;4.946;2023-04-06T14:00:47;22.90;33.90
31687;DHT22;18285;51.330;4.946;2023-04-06T14:24:58;22.90;34.40
31687;DHT22;18285;51.330;4.946;2023-04-06T14:49:08;22.80;34.50
31687;DHT22;18285;51.330;4.946;2023-04-06T15:13:19;23.00;34.90
31687;DHT22;18285;51.330;4.946;2023-04-06T15:37:30;23.00;35.20
31687;DHT22;18285;51.330;4.946;2023-04-06T16:01:41;23.00;35.30
31687;DHT22;18285;51.330;4.946;2023-04-06T16:25:51;23.00;35.60
31687;DHT22;18285;51.330;4.946;2023-04-06T16:50:04;23.00;36.30
31687;DHT22;18285;51.330;4.946;2023-04-06T17:14:15;23.00;36.10
31687;DHT22;18285;51.330;4.946;2023-04-06T17:38:26;23.10;36.30
31687;DHT22;18285;51.330;4.946;2023-04-06T18:02:37;23.00;36.20
31687;DHT22;18285;51.330;4.946;2023-04-06T18:26:48;23.00;36.30
31687;DHT22;18285;51.330;4.946;2023-04-06T18:50:58;23.00;36.40
31687;DHT22;18285;51.330;4.946;2023-04-06T19:15:11;23.10;36.40
31687;DHT22;18285;51.330;4.946;2023-04-06T19:39:21;23.00;36.20
31687;DHT22;18285;51.330;4.946;2023-04-06T20:03:32;23.00;36.20
31687;DHT22;18285;51.330;4.946;2023-04-06T20:27:43;23.10;36.20
31687;DHT22;18285;51.330;4.946;2023-04-06T20:51:55;23.20;37.40
31687;DHT22;18285;51.330;4.946;2023-04-06T21:16:06;23.10;37.50
31687;DHT22;18285;51.330;4.946;2023-04-06T21:40:16;23.10;37.90
31687;DHT22;18285;51.330;4.946;2023-04-06T22:04:29;23.10;38.20
31687;DHT22;18285;51.330;4.946;2023-04-06T22:28:40;23.00;38.40
31687;DHT22;18285;51.330;4.946;2023-04-06T22:52:51;23.00;38.40
31687;DHT22;18285;51.330;4.946;2023-04-06T23:17:02;22.90;38.20
31687;DHT22;18285;51.330;4.946;2023-04-06T23:41:14;22.90;37.90
